Time;durP1;ratioP1;P1;durP2;ratioP2;P2;SDS_P1;SDS_P2;PMS_P1;PMS_P2;Temp;Humidity;BMP_temperature;BMP_pressure;BME280_temperature;BME280_humidity;BME280_pressure;Samples;Min_cycle;Max_cycle;Signal;HPM_P1;HPM_P2
2021/03/06 00:00:19;;;;;;;62.80;46.67;;;19.90;99.90;;;;;;5014367;28;20034;-36
2021/03/06 00:02:45;;;;;;;66.80;47.17;;;19.80;99.90;;;;;;5014283;28;20480;-36
2021/03/06 00:05:12;;;;;;;59.35;43.60;;;19.90;99.90;;;;;;5014141;28;20291;-36
2021/03/06 00:07:38;;;;;;;49.40;37.22;;;19.80;99.90;;;;;;5014284;28;20030;-36
2021/03/06 00:10:06;;;;;;;58.33;37.30;;;19.80;99.90;;;;;;5014089;28;20025;-36
2021/03/06 00:12:32;;;;;;;54.60;35.47;;;19.80;99.90;;;;;;5013688;28;20061;-36
2021/03/06 00:14:58;;;;;;;57.15;35.70;;;19.70;99.90;;;;;;5014052;28;20033;-36
2021/03/06 00:17:24;;;;;;;56.70;37.05;;;19.70;99.90;;;;;;5014071;28;20088;-36
2021/03/06 00:19:50;;;;;;;46.03;32.70;;;19.70;99.90;;;;;;5013908;28;20036;-36
2021/03/06 00:22:15;;;;;;;45.83;32.28;;;19.70;99.90;;;;;;5014209;28;20037;-35
2021/03/06 00:24:41;;;;;;;48.10;33.05;;;19.70;99.90;;;;;;5013786;28;20476;-37
2021/03/06 00:27:07;;;;;;;46.45;31.73;;;19.70;99.90;;;;;;5014076;28;20034;-36
2021/03/06 00:29:33;;;;;;;48.55;31.85;;;19.70;99.90;;;;;;5013802;28;20030;-36
2021/03/06 00:31:59;;;;;;;41.45;28.80;;;19.60;99.90;;;;;;5011708;28;20030;-35
2021/03/06 00:34:25;;;;;;;41.75;28.13;;;19.60;99.90;;;;;;5009364;28;20037;-35
2021/03/06 00:36:51;;;;;;;45.88;29.13;;;19.60;99.90;;;;;;5012686;28;20490;-41
2021/03/06 00:39:17;;;;;;;47.70;27.00;;;19.60;99.90;;;;;;5012419;28;20026;-42
2021/03/06 00:41:42;;;;;;;45.78;26.60;;;19.60;99.90;;;;;;5012418;28;20460;-43
2021/03/06 00:44:08;;;;;;;44.53;28.30;;;19.60;99.90;;;;;;5011645;28;20026;-43
2021/03/06 00:46:34;;;;;;;46.75;26.77;;;19.60;99.90;;;;;;5012167;28;20208;-43
2021/03/06 00:49:00;;;;;;;37.67;26.13;;;19.60;99.90;;;;;;5009640;28;20372;-46
2021/03/06 00:51:26;;;;;;;41.08;25.40;;;19.60;99.90;;;;;;5012287;28;20018;-47
2021/03/06 00:53:52;;;;;;;36.95;25.65;;;19.50;99.90;;;;;;5011950;28;20113;-45
2021/03/06 00:56:18;;;;;;;39.33;24.58;;;19.50;99.90;;;;;;5010620;28;20104;-48
2021/03/06 00:58:43;;;;;;;40.25;25.88;;;19.50;99.90;;;;;;5011055;28;20032;-47
2021/03/06 01:01:12;;;;;;;40.45;25.77;;;19.50;99.90;;;;;;5011953;28;20492;-46
2021/03/06 01:03:38;;;;;;;39.60;27.30;;;19.50;99.90;;;;;;5011658;28;20408;-46
2021/03/06 01:06:07;;;;;;;38.95;25.52;;;19.50;99.90;;;;;;5012830;28;20128;-46
2021/03/06 01:08:34;;;;;;;42.90;26.42;;;19.50;99.90;;;;;;5011940;28;20506;-45
2021/03/06 01:11:01;;;;;;;40.05;24.00;;;19.50;99.90;;;;;;5013197;28;20029;-45
2021/03/06 01:13:29;;;;;;;41.23;24.70;;;19.50;99.90;;;;;;5012702;28;20030;-45
2021/03/06 01:15:55;;;;;;;42.65;23.35;;;19.50;99.90;;;;;;5013093;28;20109;-45
2021/03/06 01:18:21;;;;;;;42.85;23.88;;;19.50;99.90;;;;;;5011922;28;20221;-45
2021/03/06 01:20:47;;;;;;;34.30;24.17;;;19.50;99.90;;;;;;5013173;28;20105;-45
2021/03/06 01:23:13;;;;;;;32.50;22.50;;;19.50;99.90;;;;;;5009798;28;20041;-45
2021/03/06 01:25:40;;;;;;;39.75;22.80;;;19.50;99.90;;;;;;5016967;28;20477;-45
2021/03/06 01:28:06;;;;;;;35.13;23.45;;;19.50;99.90;;;;;;5017116;28;20048;-45
2021/03/06 01:30:32;;;;;;;38.45;23.80;;;19.50;99.90;;;;;;5017522;28;20495;-45
2021/03/06 01:33:00;;;;;;;41.53;23.70;;;19.40;99.90;;;;;;5016524;28;20026;-45
2021/03/06 01:35:26;;;;;;;35.03;24.50;;;19.40;99.90;;;;;;5017199;28;20503;-45
2021/03/06 01:37:53;;;;;;;34.40;22.75;;;19.40;99.90;;;;;;5017115;28;20128;-45
2021/03/06 01:40:28;;;;;;;39.35;21.33;;;19.40;99.90;;;;;;5017202;28;20380;-45
2021/03/06 01:42:54;;;;;;;37.08;21.42;;;19.40;99.90;;;;;;5016718;28;20038;-45
2021/03/06 01:45:21;;;;;;;31.75;21.40;;;19.40;99.90;;;;;;5015456;28;20022;-45
2021/03/06 01:47:46;;;;;;;36.65;22.48;;;19.40;99.90;;;;;;5016789;28;20026;-45
2021/03/06 01:50:19;;;;;;;40.92;23.27;;;19.40;99.90;;;;;;5017232;28;20084;-45
2021/03/06 01:52:45;;;;;;;31.35;20.92;;;19.40;99.90;;;;;;5016483;28;20105;-45
2021/03/06 01:55:11;;;;;;;37.17;21.58;;;19.40;99.90;;;;;;5016634;28;20048;-45
2021/03/06 01:57:37;;;;;;;33.72;20.13;;;19.40;99.90;;;;;;5016719;28;20030;-45
2021/03/06 02:00:06;;;;;;;35.63;20.67;;;19.40;99.90;;;;;;5016883;28;20033;-46
2021/03/06 02:02:32;;;;;;;32.13;20.48;;;19.40;99.90;;;;;;5016339;28;20030;-46
2021/03/06 02:04:59;;;;;;;40.70;21.90;;;19.30;99.90;;;;;;5014748;28;20149;-47
2021/03/06 02:07:25;;;;;;;33.97;21.13;;;19.30;99.90;;;;;;5014741;28;20069;-47
2021/03/06 02:09:51;;;;;;;35.58;21.23;;;19.30;99.90;;;;;;5014201;28;20056;-45
2021/03/06 02:12:38;;;;;;;40.50;21.23;;;19.30;99.90;;;;;;5014579;28;20029;-48
2021/03/06 02:15:29;;;;;;;31.80;20.63;;;19.30;99.90;;;;;;5014139;28;20057;-46
2021/03/06 02:18:11;;;;;;;28.67;20.48;;;19.30;99.90;;;;;;5004563;28;20026;-46
2021/03/06 02:21:07;;;;;;;34.25;19.30;;;19.30;99.90;;;;;;5014439;28;20476;-37
2021/03/06 02:24:15;;;;;;;34.88;20.40;;;19.30;99.90;;;;;;5014951;28;20045;-37
2021/03/06 02:26:50;;;;;;;32.50;20.42;;;19.20;99.90;;;;;;5005147;28;20054;-37
2021/03/06 02:29:31;;;;;;;31.73;19.42;;;19.30;99.90;;;;;;5014902;28;20022;-37
2021/03/06 02:32:00;;;;;;;30.45;19.77;;;19.30;99.90;;;;;;5014957;28;20064;-37
2021/03/06 02:34:31;;;;;;;31.55;19.95;;;19.30;99.90;;;;;;5014278;28;20076;-37
2021/03/06 02:37:01;;;;;;;31.33;18.88;;;19.20;99.90;;;;;;5015054;28;20033;-37
2021/03/06 02:39:28;;;;;;;36.88;19.33;;;19.20;99.90;;;;;;5014590;28;20034;-38
2021/03/06 02:41:57;;;;;;;34.38;18.60;;;19.30;99.90;;;;;;5014892;28;20064;-37
2021/03/06 02:44:26;;;;;;;30.48;18.25;;;19.30;99.90;;;;;;5013436;28;20096;-37
2021/03/06 02:46:52;;;;;;;36.17;20.00;;;19.20;99.90;;;;;;5013045;28;20030;-37
2021/03/06 02:49:17;;;;;;;31.90;18.75;;;19.20;99.90;;;;;;5014260;28;20026;-37
2021/03/06 02:51:44;;;;;;;27.70;17.33;;;19.20;99.90;;;;;;5014871;28;20037;-37
2021/03/06 02:54:11;;;;;;;27.90;18.73;;;19.20;99.90;;;;;;5014438;28;20037;-37
2021/03/06 02:56:38;;;;;;;36.13;18.90;;;19.20;99.90;;;;;;5014733;28;20026;-38
2021/03/06 02:59:37;;;;;;;34.33;18.65;;;19.20;99.90;;;;;;5014244;28;20034;-37
2021/03/06 03:02:29;;;;;;;34.20;17.35;;;19.20;99.90;;;;;;5014345;28;20034;-38
2021/03/06 03:05:30;;;;;;;32.60;17.02;;;19.20;99.90;;;;;;4960597;28;1466273;-38
2021/03/06 03:08:05;;;;;;;26.38;16.95;;;19.10;99.90;;;;;;5007956;28;20049;-38
2021/03/06 03:10:36;;;;;;;30.75;17.10;;;19.20;99.90;;;;;;5015656;28;20026;-37
2021/03/06 03:13:18;;;;;;;32.90;17.20;;;19.10;99.90;;;;;;4995888;28;20540;-37
2021/03/06 03:15:57;;;;;;;33.60;18.13;;;19.10;99.90;;;;;;5011605;28;20476;-37
2021/03/06 03:18:37;;;;;;;29.48;17.15;;;19.10;99.90;;;;;;5012519;28;20092;-37
2021/03/06 03:21:05;;;;;;;30.65;17.48;;;19.10;99.90;;;;;;5015079;28;20021;-38
2021/03/06 03:23:40;;;;;;;27.10;15.35;;;19.10;99.90;;;;;;5015339;28;20026;-38
2021/03/06 03:26:17;;;;;;;30.38;17.60;;;19.10;99.90;;;;;;5013918;28;20061;-37
2021/03/06 03:28:47;;;;;;;25.98;16.88;;;19.10;99.90;;;;;;5015178;28;20022;-37
2021/03/06 03:31:14;;;;;;;26.88;16.85;;;19.10;99.90;;;;;;5015007;28;20030;-38
2021/03/06 03:33:43;;;;;;;29.17;16.40;;;19.20;99.90;;;;;;5014434;28;20029;-37
2021/03/06 03:36:10;;;;;;;26.75;16.45;;;19.20;99.90;;;;;;5014534;28;20026;-38
2021/03/06 03:38:36;;;;;;;25.67;17.02;;;19.10;99.90;;;;;;5013497;28;20117;-38
2021/03/06 03:41:07;;;;;;;31.65;16.42;;;19.10;99.90;;;;;;5014871;28;20072;-38
2021/03/06 03:43:34;;;;;;;30.80;16.85;;;19.20;99.90;;;;;;5014378;28;20030;-38
2021/03/06 03:46:03;;;;;;;26.85;16.38;;;19.10;99.90;;;;;;5013808;28;20029;-38
2021/03/06 03:48:29;;;;;;;30.38;16.40;;;19.20;99.90;;;;;;5013663;28;20026;-38
2021/03/06 03:50:55;;;;;;;30.42;17.83;;;19.10;99.90;;;;;;5013613;28;20063;-38
2021/03/06 03:53:22;;;;;;;24.90;16.15;;;19.10;99.90;;;;;;5014456;28;20105;-38
2021/03/06 03:55:48;;;;;;;26.23;16.42;;;19.20;99.90;;;;;;5014564;28;20022;-38
2021/03/06 03:58:15;;;;;;;23.05;16.08;;;19.10;99.90;;;;;;5014801;28;20022;-38
2021/03/06 04:00:41;;;;;;;31.35;16.60;;;19.10;99.90;;;;;;5014466;28;20022;-38
2021/03/06 04:03:08;;;;;;;30.10;16.33;;;19.10;99.90;;;;;;5014214;28;20037;-38
2021/03/06 04:05:34;;;;;;;27.40;15.63;;;19.10;99.90;;;;;;5014178;28;20052;-38
2021/03/06 04:08:00;;;;;;;26.50;17.25;;;19.10;99.90;;;;;;5013449;28;20101;-38
2021/03/06 04:10:27;;;;;;;26.40;16.48;;;19.10;99.90;;;;;;5013041;28;20124;-38
2021/03/06 04:12:54;;;;;;;22.70;15.60;;;19.10;99.90;;;;;;5012909;28;20103;-38
2021/03/06 04:15:21;;;;;;;24.92;15.48;;;19.10;99.90;;;;;;5013189;28;20470;-38
2021/03/06 04:17:48;;;;;;;26.90;16.30;;;19.10;99.90;;;;;;5012777;28;20491;-38
2021/03/06 04:20:18;;;;;;;38.27;17.27;;;19.10;99.90;;;;;;5013893;28;20259;-38
2021/03/06 04:22:44;;;;;;;25.15;15.88;;;19.10;99.90;;;;;;5013685;28;20372;-38
2021/03/06 04:25:11;;;;;;;30.75;17.23;;;19.10;99.90;;;;;;5013905;28;20030;-38
2021/03/06 04:27:38;;;;;;;27.10;16.95;;;19.10;99.90;;;;;;5014256;28;20057;-38
2021/03/06 04:30:07;;;;;;;23.55;15.43;;;19.10;99.90;;;;;;5013794;28;20105;-38
2021/03/06 04:32:33;;;;;;;28.85;16.27;;;19.10;99.90;;;;;;5012419;28;20040;-38
2021/03/06 04:34:59;;;;;;;25.55;16.52;;;19.10;99.90;;;;;;5014365;28;20106;-39
2021/03/06 04:37:25;;;;;;;26.77;15.60;;;19.10;99.90;;;;;;5013647;28;20419;-38
2021/03/06 04:39:51;;;;;;;22.77;15.70;;;19.10;99.90;;;;;;5013950;28;20080;-38
2021/03/06 04:42:17;;;;;;;23.52;15.43;;;19.10;99.90;;;;;;5013071;28;20472;-38
2021/03/06 04:44:43;;;;;;;24.98;15.70;;;19.10;99.90;;;;;;5013536;28;20030;-38
2021/03/06 04:47:09;;;;;;;24.90;15.30;;;19.10;99.90;;;;;;5013284;28;20029;-38
2021/03/06 04:49:35;;;;;;;22.75;15.88;;;19.10;99.90;;;;;;5011815;28;20515;-38
2021/03/06 04:52:00;;;;;;;23.70;14.55;;;19.10;99.90;;;;;;5013568;28;20026;-38
2021/03/06 04:54:27;;;;;;;26.30;15.45;;;19.10;99.90;;;;;;5012755;28;20121;-38
2021/03/06 04:56:52;;;;;;;30.65;17.00;;;19.00;99.90;;;;;;5013160;28;20400;-38
2021/03/06 04:59:19;;;;;;;23.52;15.43;;;19.10;99.90;;;;;;5013613;28;20037;-38
2021/03/06 05:01:45;;;;;;;25.65;16.25;;;19.10;99.90;;;;;;5013429;28;20038;-38
2021/03/06 05:04:11;;;;;;;21.35;15.52;;;19.00;99.90;;;;;;5013067;28;20547;-38
2021/03/06 05:06:37;;;;;;;24.77;14.60;;;19.00;99.90;;;;;;5013142;28;20396;-38
2021/03/06 05:09:03;;;;;;;28.67;15.25;;;19.00;99.90;;;;;;5013721;28;20025;-38
2021/03/06 05:11:30;;;;;;;20.35;14.48;;;19.00;99.90;;;;;;5013305;28;20139;-38
2021/03/06 05:13:55;;;;;;;22.25;14.93;;;19.00;99.90;;;;;;5013473;28;20022;-38
2021/03/06 05:16:21;;;;;;;22.30;14.88;;;19.00;99.90;;;;;;5013206;28;20030;-38
2021/03/06 05:18:47;;;;;;;22.40;14.90;;;19.00;99.90;;;;;;5013481;28;20030;-38
2021/03/06 05:21:13;;;;;;;29.10;15.50;;;19.00;99.90;;;;;;5013238;28;20026;-38
2021/03/06 05:23:39;;;;;;;25.63;15.07;;;19.00;99.90;;;;;;5013510;28;20408;-38
2021/03/06 05:26:05;;;;;;;19.48;13.57;;;19.00;99.90;;;;;;5013158;28;20061;-38
2021/03/06 05:28:30;;;;;;;22.48;13.80;;;19.00;99.90;;;;;;5013469;28;20031;-38
2021/03/06 05:30:56;;;;;;;20.77;14.13;;;19.00;99.90;;;;;;5013143;28;20026;-38
2021/03/06 05:33:22;;;;;;;25.88;13.98;;;19.00;99.90;;;;;;5013249;28;20026;-38
2021/03/06 05:35:48;;;;;;;20.38;14.07;;;19.00;99.90;;;;;;5013041;28;20109;-38
2021/03/06 05:38:14;;;;;;;24.10;14.63;;;19.00;99.90;;;;;;5013173;28;20033;-38
2021/03/06 05:40:45;;;;;;;27.77;15.27;;;19.10;99.90;;;;;;5012917;28;20018;-38
2021/03/06 05:43:12;;;;;;;22.67;15.00;;;19.00;99.90;;;;;;5012038;28;20104;-38
2021/03/06 05:45:38;;;;;;;23.50;15.18;;;19.00;99.90;;;;;;5013241;28;20027;-38
2021/03/06 05:48:05;;;;;;;32.17;18.08;;;19.00;99.90;;;;;;5012958;28;20503;-38
2021/03/06 05:50:31;;;;;;;29.38;20.60;;;18.90;99.90;;;;;;5013028;28;20057;-38
2021/03/06 05:52:58;;;;;;;33.83;19.83;;;18.90;99.90;;;;;;5013031;28;20025;-39
2021/03/06 05:55:26;;;;;;;33.08;21.10;;;18.90;99.90;;;;;;5012595;28;20030;-45
2021/03/06 05:57:56;;;;;;;277.77;215.70;;;18.90;99.90;;;;;;5012444;28;20038;-47
2021/03/06 06:00:23;;;;;;;260.27;220.15;;;18.90;99.90;;;;;;5010395;28;20061;-46
2021/03/06 06:02:54;;;;;;;117.72;88.57;;;18.90;99.90;;;;;;5012241;28;20026;-46
2021/03/06 06:05:20;;;;;;;130.85;107.97;;;18.80;99.90;;;;;;5012262;28;20527;-45
2021/03/06 06:07:47;;;;;;;125.20;100.38;;;18.80;99.90;;;;;;5012490;28;20464;-45
2021/03/06 06:10:13;;;;;;;122.32;97.25;;;18.80;99.90;;;;;;5013691;28;20025;-46
2021/03/06 06:12:45;;;;;;;113.43;93.32;;;18.80;99.90;;;;;;5014667;28;20526;-47
2021/03/06 06:15:12;;;;;;;116.40;93.20;;;18.80;99.90;;;;;;5015738;28;20026;-46
2021/03/06 06:17:39;;;;;;;112.93;87.40;;;18.80;99.90;;;;;;5011064;28;20034;-46
2021/03/06 06:20:06;;;;;;;104.70;82.82;;;18.80;99.90;;;;;;5003321;28;20181;-47
2021/03/06 06:22:32;;;;;;;101.68;81.82;;;18.90;99.90;;;;;;5015814;28;20034;-46
2021/03/06 06:24:58;;;;;;;94.13;69.15;;;18.90;99.90;;;;;;5015562;28;20038;-47
2021/03/06 06:27:25;;;;;;;80.88;64.32;;;18.90;99.90;;;;;;5014309;28;20057;-47
2021/03/06 06:29:54;;;;;;;91.20;67.38;;;18.90;99.90;;;;;;5015555;28;20022;-47
2021/03/06 06:32:39;;;;;;;82.82;63.70;;;18.90;99.90;;;;;;5015428;28;20038;-47
2021/03/06 06:35:07;;;;;;;81.85;63.28;;;18.90;99.90;;;;;;5015277;28;20064;-47
2021/03/06 06:37:34;;;;;;;74.68;56.67;;;18.90;99.90;;;;;;5015642;28;20049;-47
2021/03/06 06:40:14;;;;;;;78.22;60.05;;;18.90;99.90;;;;;;5015193;28;20060;-47
2021/03/06 06:42:40;;;;;;;78.47;56.63;;;18.90;99.90;;;;;;5012875;28;20029;-47
2021/03/06 06:45:06;;;;;;;71.00;52.63;;;18.90;99.90;;;;;;5014653;28;20092;-47
2021/03/06 06:47:38;;;;;;;72.43;52.28;;;18.90;99.90;;;;;;5014427;28;20041;-47
2021/03/06 06:50:06;;;;;;;359.35;275.13;;;18.90;99.90;;;;;;5011747;28;20029;-47
2021/03/06 06:52:38;;;;;;;179.48;139.05;;;18.90;99.90;;;;;;5014823;28;20030;-48
2021/03/06 06:55:06;;;;;;;287.90;232.65;;;18.90;99.90;;;;;;5014714;28;20042;-46
2021/03/06 06:57:32;;;;;;;249.15;196.05;;;18.90;99.90;;;;;;5015005;28;20048;-47
2021/03/06 07:00:16;;;;;;;264.88;209.10;;;18.90;99.90;;;;;;5015373;28;20444;-47
2021/03/06 07:02:58;;;;;;;224.43;176.73;;;18.90;99.90;;;;;;4997327;28;20034;-47
2021/03/06 07:05:38;;;;;;;434.90;361.20;;;18.90;99.90;;;;;;5014528;28;20045;-38
2021/03/06 07:08:06;;;;;;;275.08;222.18;;;18.90;99.90;;;;;;5015224;28;20518;-38
2021/03/06 07:10:35;;;;;;;;;;;18.80;99.90;;;;;;5013676;28;20112;-38
2021/03/06 07:13:04;;;;;;;229.60;179.10;;;18.90;99.90;;;;;;5011333;28;20290;-38
2021/03/06 07:15:31;;;;;;;217.88;172.30;;;18.80;99.90;;;;;;5013307;28;20022;-38
2021/03/06 07:18:00;;;;;;;195.45;153.10;;;18.80;99.90;;;;;;5011006;28;20472;-38
2021/03/06 07:20:36;;;;;;;206.40;161.25;;;18.80;99.90;;;;;;5013592;28;20469;-38
2021/03/06 07:23:19;;;;;;;404.77;308.38;;;18.80;99.90;;;;;;5012641;28;20026;-38
2021/03/06 07:25:52;;;;;;;250.25;204.35;;;18.90;99.90;;;;;;5013916;28;20030;-39
2021/03/06 07:28:18;;;;;;;269.08;212.27;;;18.90;99.90;;;;;;5013810;28;20037;-39
2021/03/06 07:30:45;;;;;;;250.00;198.18;;;18.90;99.90;;;;;;5014175;28;20105;-38
2021/03/06 07:33:16;;;;;;;210.40;166.80;;;18.80;99.90;;;;;;5014038;28;20543;-39
2021/03/06 07:35:44;;;;;;;197.68;155.57;;;18.80;99.90;;;;;;5013289;28;20030;-38
2021/03/06 07:38:16;;;;;;;;;;;18.80;99.90;;;;;;5014208;28;20030;-38
2021/03/06 07:40:58;;;;;;;161.15;120.93;;;18.90;99.90;;;;;;5013714;28;19975;-38
2021/03/06 07:43:28;;;;;;;102.85;74.45;;;18.90;99.90;;;;;;5014172;28;20032;-38
2021/03/06 07:45:57;;;;;;;103.53;74.72;;;18.90;99.90;;;;;;5014434;28;20026;-38
2021/03/06 07:48:30;;;;;;;97.72;72.22;;;18.80;99.90;;;;;;5013886;28;20029;-38
2021/03/06 07:50:58;;;;;;;106.47;74.47;;;18.80;99.90;;;;;;5013668;28;20357;-38
2021/03/06 07:53:27;;;;;;;84.60;61.65;;;18.80;99.90;;;;;;5013912;28;20480;-38
2021/03/06 07:55:53;;;;;;;73.47;51.33;;;18.90;99.90;;;;;;5002014;28;20084;-38
2021/03/06 07:58:20;;;;;;;70.72;50.85;;;18.90;99.90;;;;;;5013256;28;20396;-38
2021/03/06 08:00:58;;;;;;;67.65;48.00;;;18.90;99.90;;;;;;5012112;28;20033;-39
2021/03/06 08:03:36;;;;;;;;;;;18.90;99.90;;;;;;5014427;28;20034;-38
2021/03/06 08:06:19;;;;;;;54.95;32.25;;;19.00;99.90;;;;;;5013717;28;19913;-38
2021/03/06 08:08:45;;;;;;;50.97;33.53;;;19.00;99.90;;;;;;5013815;28;20372;-39
2021/03/06 08:11:16;;;;;;;55.13;33.83;;;19.00;99.90;;;;;;5013583;28;20026;-39
2021/03/06 08:13:52;;;;;;;46.03;33.85;;;19.00;99.90;;;;;;4995309;28;20018;-39
2021/03/06 08:16:23;;;;;;;40.80;28.85;;;19.00;99.90;;;;;;5013645;28;20064;-39
2021/03/06 08:18:49;;;;;;;43.20;26.90;;;19.00;99.90;;;;;;5013332;28;20030;-39
2021/03/06 08:21:36;;;;;;;42.58;26.90;;;19.00;99.90;;;;;;5012340;28;20091;-39
2021/03/06 08:24:14;;;;;;;279.35;233.13;;;19.00;99.90;;;;;;5013831;28;20087;-39
2021/03/06 08:26:52;;;;;;;213.27;168.25;;;19.10;99.90;;;;;;5013482;28;20372;-39
2021/03/06 08:29:24;;;;;;;239.63;187.20;;;19.00;99.90;;;;;;5004073;28;20499;-39
2021/03/06 08:31:56;;;;;;;191.70;151.82;;;19.00;99.90;;;;;;5012597;28;20380;-39
2021/03/06 08:34:45;;;;;;;167.23;124.40;;;19.00;99.90;;;;;;5008706;28;20542;-39
2021/03/06 08:37:14;;;;;;;165.30;126.65;;;19.00;99.90;;;;;;5004610;28;20507;-39
2021/03/06 08:39:45;;;;;;;149.00;114.10;;;19.10;99.90;;;;;;4999389;28;20527;-39
2021/03/06 08:42:16;;;;;;;135.68;107.10;;;19.10;99.90;;;;;;5012684;28;20054;-39
2021/03/06 08:44:42;;;;;;;133.20;103.32;;;19.10;99.90;;;;;;5003418;28;20472;-39
2021/03/06 08:47:08;;;;;;;121.22;96.15;;;19.20;99.90;;;;;;4994618;28;20084;-38
2021/03/06 08:49:35;;;;;;;110.65;84.82;;;19.30;99.90;;;;;;5002563;28;20026;-39
2021/03/06 08:52:02;;;;;;;103.50;78.00;;;19.30;99.90;;;;;;5000467;28;20077;-38
2021/03/06 08:54:37;;;;;;;91.45;71.60;;;19.30;99.90;;;;;;5000383;28;20351;-39
2021/03/06 08:57:03;;;;;;;90.65;62.00;;;19.30;99.90;;;;;;5011098;28;20562;-39
2021/03/06 08:59:39;;;;;;;76.80;58.08;;;19.30;99.90;;;;;;5013135;28;20029;-39
2021/03/06 09:02:25;;;;;;;85.82;56.38;;;19.40;99.90;;;;;;4998289;28;20046;-37
2021/03/06 09:05:07;;;;;;;54.65;36.28;;;19.40;99.90;;;;;;5004660;28;20488;-37
2021/03/06 09:07:36;;;;;;;60.00;40.00;;;19.40;99.90;;;;;;4997923;28;20026;-37
2021/03/06 09:10:18;;;;;;;52.30;34.47;;;19.50;99.90;;;;;;5003540;28;20492;-37
2021/03/06 09:12:46;;;;;;;61.00;43.05;;;19.50;99.90;;;;;;5010172;28;20049;-37
2021/03/06 09:15:23;;;;;;;72.40;47.17;;;19.50;99.90;;;;;;5012906;28;20026;-38
2021/03/06 09:17:49;;;;;;;66.25;48.42;;;19.60;99.90;;;;;;5002325;28;20038;-37
2021/03/06 09:20:15;;;;;;;69.97;50.17;;;19.60;99.90;;;;;;5011270;28;20022;-37
2021/03/06 09:22:47;;;;;;;67.25;49.25;;;19.60;99.90;;;;;;5010466;28;20396;-37
2021/03/06 09:25:13;;;;;;;69.35;48.80;;;19.60;99.90;;;;;;5008112;28;20739;-40
2021/03/06 09:27:46;;;;;;;67.55;49.25;;;19.60;99.90;;;;;;5010609;28;20116;-40
2021/03/06 09:30:27;;;;;;;67.75;50.20;;;19.60;99.90;;;;;;5005245;28;20113;-38
2021/03/06 09:32:54;;;;;;;67.80;51.50;;;19.70;99.90;;;;;;5001071;28;20022;-38
2021/03/06 09:35:21;;;;;;;70.55;53.70;;;19.70;99.90;;;;;;5002876;28;20030;-38
2021/03/06 09:38:06;;;;;;;75.93;53.70;;;19.70;99.90;;;;;;4998281;28;20038;-38
2021/03/06 09:40:38;;;;;;;76.68;52.35;;;19.80;99.90;;;;;;4998055;28;20030;-38
2021/03/06 09:43:04;;;;;;;70.88;53.10;;;19.80;99.90;;;;;;5001854;28;20799;-38
2021/03/06 09:45:30;;;;;;;68.30;50.03;;;19.80;99.90;;;;;;4998208;28;20038;-38
2021/03/06 09:48:05;;;;;;;67.97;49.38;;;19.80;99.90;;;;;;5006040;28;20026;-38
2021/03/06 09:50:31;;;;;;;65.32;53.03;;;19.80;99.90;;;;;;5002122;28;20046;-38
2021/03/06 09:52:57;;;;;;;65.05;49.45;;;19.80;99.90;;;;;;5004594;28;20022;-38
2021/03/06 09:55:23;;;;;;;63.78;48.13;;;19.80;99.90;;;;;;5002565;28;20061;-38
2021/03/06 09:57:49;;;;;;;63.80;48.22;;;19.80;99.90;;;;;;5000866;28;20527;-39
2021/03/06 10:00:23;;;;;;;64.70;47.53;;;19.80;99.90;;;;;;5007421;28;20472;-39
2021/03/06 10:02:50;;;;;;;61.25;46.75;;;19.90;99.90;;;;;;5001985;28;20453;-39
2021/03/06 10:05:20;;;;;;;61.13;41.75;;;19.90;99.90;;;;;;5006082;28;20100;-39
2021/03/06 10:07:48;;;;;;;59.03;44.38;;;19.90;99.90;;;;;;5006916;28;20036;-37
2021/03/06 10:10:14;;;;;;;54.97;43.03;;;19.90;99.90;;;;;;5006793;28;20026;-39
2021/03/06 10:12:45;;;;;;;134.52;102.15;;;20.00;99.90;;;;;;5006528;28;20443;-39
2021/03/06 10:15:13;;;;;;;224.43;178.88;;;20.00;99.90;;;;;;5003073;28;20077;-37
2021/03/06 10:17:39;;;;;;;147.98;114.57;;;20.10;99.90;;;;;;5002448;28;20045;-40
2021/03/06 10:20:06;;;;;;;120.25;90.80;;;20.10;99.90;;;;;;4998162;28;20072;-40
2021/03/06 10:22:48;;;;;;;92.60;68.07;;;20.00;99.90;;;;;;5001597;28;20108;-40
2021/03/06 10:25:27;;;;;;;70.60;45.72;;;20.00;99.90;;;;;;5001194;28;20053;-39
2021/03/06 10:27:53;;;;;;;59.80;35.80;;;20.00;99.90;;;;;;5004606;28;20041;-40
2021/03/06 10:30:25;;;;;;;87.22;61.10;;;20.00;99.90;;;;;;5006519;28;20022;-38
2021/03/06 10:32:56;;;;;;;44.80;26.70;;;20.00;99.90;;;;;;5002256;28;20105;-40
2021/03/06 10:35:43;;;;;;;32.42;19.02;;;20.00;99.90;;;;;;5001298;28;20376;-39
2021/03/06 10:38:27;;;;;;;35.15;20.33;;;19.90;99.90;;;;;;5001426;28;20548;-45
2021/03/06 10:40:59;;;;;;;25.83;15.32;;;19.90;99.90;;;;;;5004139;28;20496;-45
2021/03/06 10:43:39;;;;;;;29.35;14.20;;;19.80;99.90;;;;;;5005974;28;20428;-46
2021/03/06 10:46:15;;;;;;;32.28;14.32;;;19.80;99.90;;;;;;5004079;28;20045;-46
2021/03/06 10:48:50;;;;;;;35.45;15.20;;;19.90;99.90;;;;;;5005821;28;20502;-45
2021/03/06 10:51:16;;;;;;;33.58;13.38;;;19.80;99.90;;;;;;5004098;28;20049;-44
2021/03/06 10:53:43;;;;;;;27.85;14.63;;;19.80;99.90;;;;;;5002397;28;20061;-45
2021/03/06 10:56:21;;;;;;;33.65;13.93;;;19.80;99.90;;;;;;5001547;28;20085;-44
2021/03/06 10:58:48;;;;;;;33.97;14.88;;;19.70;99.90;;;;;;5005820;28;20522;-44
2021/03/06 11:01:17;;;;;;;34.22;13.77;;;19.80;99.90;;;;;;5005808;28;20461;-44
2021/03/06 11:03:44;;;;;;;27.50;14.43;;;19.70;99.90;;;;;;5005612;28;20033;-44
2021/03/06 11:06:11;;;;;;;30.08;15.63;;;19.70;99.90;;;;;;5002559;28;20520;-44
2021/03/06 11:08:38;;;;;;;37.13;17.20;;;19.70;99.90;;;;;;5003177;28;21869;-44
2021/03/06 11:11:05;;;;;;;37.20;15.77;;;19.60;99.90;;;;;;5009102;28;20072;-45
2021/03/06 11:13:44;;;;;;;25.02;14.43;;;19.60;99.90;;;;;;5000903;28;20018;-44
2021/03/06 11:16:14;;;;;;;31.02;15.75;;;19.60;99.90;;;;;;5002916;28;20777;-45
2021/03/06 11:18:41;;;;;;;33.67;18.55;;;19.60;99.90;;;;;;5003620;28;20034;-45
2021/03/06 11:21:10;;;;;;;34.83;19.38;;;19.60;99.90;;;;;;5001878;28;20026;-44
2021/03/06 11:23:37;;;;;;;36.35;17.90;;;19.60;99.90;;;;;;5003815;28;20031;-44
2021/03/06 11:26:04;;;;;;;26.75;16.48;;;19.60;99.90;;;;;;5001512;28;20022;-45
2021/03/06 11:28:31;;;;;;;32.28;15.88;;;19.60;99.90;;;;;;4998340;28;20364;-43
2021/03/06 11:30:57;;;;;;;32.95;14.80;;;19.60;99.90;;;;;;5001351;28;20050;-45
2021/03/06 11:33:23;;;;;;;37.13;21.45;;;19.70;99.90;;;;;;5001586;28;20022;-45
2021/03/06 11:35:50;;;;;;;45.60;21.35;;;19.60;99.90;;;;;;5001395;28;20026;-44
2021/03/06 11:38:19;;;;;;;33.63;17.25;;;19.60;99.90;;;;;;5003908;28;20118;-45
2021/03/06 11:40:48;;;;;;;38.05;17.88;;;19.60;99.90;;;;;;5001729;28;20463;-46
2021/03/06 11:43:14;;;;;;;40.20;18.27;;;19.60;99.90;;;;;;5003112;28;20096;-45
2021/03/06 11:45:41;;;;;;;35.17;17.40;;;19.60;99.90;;;;;;5000909;28;20476;-47
2021/03/06 11:48:08;;;;;;;38.30;17.42;;;19.70;99.90;;;;;;5003094;28;20034;-44
2021/03/06 11:50:37;;;;;;;41.38;16.65;;;19.70;99.90;;;;;;5005129;28;20037;-45
2021/03/06 11:53:04;;;;;;;31.30;15.95;;;19.60;99.90;;;;;;5001565;28;20022;-47
2021/03/06 11:55:30;;;;;;;39.30;17.73;;;19.60;99.90;;;;;;4999763;28;20080;-47
2021/03/06 11:57:56;;;;;;;35.03;16.83;;;19.60;99.90;;;;;;5002394;28;20041;-46
2021/03/06 12:00:24;;;;;;;33.63;15.38;;;19.70;99.90;;;;;;4999148;28;20038;-48
2021/03/06 12:02:50;;;;;;;36.38;16.48;;;19.70;99.90;;;;;;5000804;28;20061;-46
2021/03/06 12:05:17;;;;;;;40.47;16.65;;;19.70;99.90;;;;;;5000193;28;20101;-44
2021/03/06 12:07:44;;;;;;;48.20;16.50;;;19.70;99.90;;;;;;5000544;28;20496;-45
2021/03/06 12:10:13;;;;;;;39.75;15.45;;;19.70;99.90;;;;;;5000869;28;20029;-46
2021/03/06 12:12:41;;;;;;;39.28;16.55;;;19.70;99.90;;;;;;5003220;28;20030;-45
2021/03/06 12:15:08;;;;;;;41.63;17.98;;;19.70;99.90;;;;;;4998129;28;20064;-45
2021/03/06 12:17:34;;;;;;;53.13;18.50;;;19.70;99.90;;;;;;5003789;28;20527;-44
2021/03/06 12:20:00;;;;;;;45.03;18.75;;;19.70;99.90;;;;;;5001358;28;20087;-44
2021/03/06 12:22:26;;;;;;;45.22;17.27;;;19.60;99.90;;;;;;5006773;28;20109;-45
2021/03/06 12:24:53;;;;;;;39.25;16.08;;;19.70;99.90;;;;;;5003853;28;20101;-47
2021/03/06 12:27:19;;;;;;;36.88;15.80;;;19.70;99.90;;;;;;5004015;28;20536;-46
2021/03/06 12:29:44;;;;;;;40.85;15.20;;;19.70;99.90;;;;;;4999702;28;20033;-45
2021/03/06 12:32:10;;;;;;;43.70;14.50;;;19.70;99.90;;;;;;4998362;28;20022;-46
2021/03/06 12:34:36;;;;;;;40.13;15.38;;;19.80;99.90;;;;;;5000449;28;20022;-46
2021/03/06 12:37:03;;;;;;;40.08;14.07;;;19.80;99.90;;;;;;4997655;28;20065;-45